Time;durP1;ratioP1;P1;durP2;ratioP2;P2;SDS_P1;SDS_P2;PMS_P1;PMS_P2;Temp;Humidity;BMP_temperature;BMP_pressure;BME280_temperature;BME280_humidity;BME280_pressure;Samples;Min_cycle;Max_cycle;Signal;HPM_P1;HPM_P2
2023/02/24 00:01:25;;;;;;;7.05;4.72;;;6.70;99.90;;;;;;5021078;28;20062;-83
2023/02/24 00:03:52;;;;;;;9.18;5.00;;;6.80;99.90;;;;;;5028364;28;20027;-82
2023/02/24 00:06:18;;;;;;;7.95;5.00;;;6.70;99.90;;;;;;5023380;28;20033;-83
2023/02/24 00:08:44;;;;;;;7.93;4.63;;;6.70;99.90;;;;;;5028015;28;20091;-82
2023/02/24 00:11:12;;;;;;;7.22;4.45;;;6.70;99.90;;;;;;5021864;28;20026;-82
2023/02/24 00:13:45;;;;;;;6.80;4.45;;;6.60;99.90;;;;;;5023855;28;20474;-83
2023/02/24 00:16:11;;;;;;;7.95;5.03;;;6.50;99.90;;;;;;5008109;28;20105;-82
2023/02/24 00:18:37;;;;;;;7.93;4.95;;;6.50;99.90;;;;;;5007256;28;20101;-82
2023/02/24 00:21:14;;;;;;;10.63;5.50;;;6.40;99.90;;;;;;5011982;28;20079;-82
2023/02/24 00:23:42;;;;;;;7.55;5.15;;;6.40;99.90;;;;;;5011191;28;20033;-82
2023/02/24 00:26:09;;;;;;;8.05;4.95;;;6.40;99.90;;;;;;5015348;28;20040;-82
2023/02/24 00:28:36;;;;;;;6.88;4.80;;;6.50;99.90;;;;;;5016554;28;20604;-82
2023/02/24 00:31:12;;;;;;;9.02;5.30;;;6.50;99.90;;;;;;5012640;28;20026;-82
2023/02/24 00:33:39;;;;;;;11.35;4.60;;;6.50;99.90;;;;;;5015402;28;20065;-82
2023/02/24 00:36:22;;;;;;;9.15;4.15;;;6.50;99.90;;;;;;5011635;28;20085;-82
2023/02/24 00:38:49;;;;;;;9.38;4.78;;;6.40;99.90;;;;;;5013203;28;20040;-82
2023/02/24 00:41:21;;;;;;;6.03;4.43;;;6.30;99.90;;;;;;5021791;28;20030;-82
2023/02/24 00:43:48;;;;;;;7.47;4.43;;;6.30;99.90;;;;;;5016501;28;20018;-82
2023/02/24 00:46:20;;;;;;;9.27;4.95;;;6.20;99.90;;;;;;5019056;28;20010;-82
2023/02/24 00:48:47;;;;;;;7.70;4.43;;;6.20;99.90;;;;;;5019656;28;20044;-83
2023/02/24 00:51:16;;;;;;;9.65;5.00;;;6.10;99.90;;;;;;5013927;28;20108;-82
2023/02/24 00:53:43;;;;;;;5.60;4.78;;;6.10;99.90;;;;;;5020951;28;20113;-83
2023/02/24 00:56:10;;;;;;;7.07;4.55;;;6.10;99.90;;;;;;5010089;28;20030;-83
2023/02/24 00:58:37;;;;;;;7.07;4.85;;;6.10;99.90;;;;;;5015419;28;20125;-82
2023/02/24 01:01:04;;;;;;;7.80;4.60;;;6.10;99.90;;;;;;5015761;28;20100;-83
2023/02/24 01:03:31;;;;;;;8.70;5.63;;;6.10;99.90;;;;;;5013686;28;20098;-83
2023/02/24 01:06:02;;;;;;;7.47;5.13;;;6.10;99.90;;;;;;5013015;28;20162;-81
2023/02/24 01:08:27;;;;;;;7.35;4.35;;;6.00;99.90;;;;;;5013797;28;20034;-82
2023/02/24 01:12:00;;;;;;;7.50;4.82;;;6.00;99.90;;;;;;5017334;28;20045;-83
2023/02/24 01:13:40;;;;;;;7.25;4.45;;;6.00;99.90;;;;;;5014073;28;20034;-82
2023/02/24 01:16:06;;;;;;;14.43;5.18;;;6.00;99.90;;;;;;5017837;28;20029;-82
2023/02/24 01:18:32;;;;;;;9.00;5.10;;;5.90;99.90;;;;;;5018994;28;20044;-83
2023/02/24 01:20:58;;;;;;;5.70;3.90;;;5.90;99.90;;;;;;5021451;28;20162;-83
2023/02/24 01:23:24;;;;;;;14.77;5.30;;;5.80;99.90;;;;;;5015233;28;20646;-83
2023/02/24 01:25:50;;;;;;;9.27;4.85;;;5.80;99.90;;;;;;5017037;28;20030;-83
2023/02/24 01:28:16;;;;;;;6.63;4.40;;;5.80;99.90;;;;;;5015774;28;20053;-83
2023/02/24 01:30:42;;;;;;;5.10;3.95;;;5.60;99.90;;;;;;5013956;28;20038;-82
2023/02/24 01:33:13;;;;;;;4.93;3.92;;;5.40;99.90;;;;;;5011711;28;20393;-82
2023/02/24 01:35:41;;;;;;;7.25;4.20;;;5.10;99.90;;;;;;5016692;28;20057;-82
2023/02/24 01:38:07;;;;;;;5.10;3.65;;;4.90;99.90;;;;;;5021566;28;20034;-82
2023/02/24 01:40:33;;;;;;;5.57;3.83;;;4.90;99.90;;;;;;5028922;28;20037;-82
2023/02/24 01:42:58;;;;;;;6.72;3.85;;;5.00;99.90;;;;;;5022083;28;20077;-82
2023/02/24 01:45:28;;;;;;;8.73;4.95;;;5.10;99.90;;;;;;5036575;28;20034;-82
2023/02/24 01:48:00;;;;;;;4.22;3.20;;;5.20;99.90;;;;;;5020998;28;20034;-82
2023/02/24 01:50:27;;;;;;;4.25;3.80;;;5.30;99.90;;;;;;5020790;28;20041;-81
2023/02/24 01:53:01;;;;;;;5.55;3.90;;;5.30;99.90;;;;;;5014551;28;20034;-82
2023/02/24 01:55:31;;;;;;;4.97;3.88;;;5.40;99.90;;;;;;5016759;28;20093;-82
2023/02/24 01:58:00;;;;;;;4.85;4.10;;;5.50;99.90;;;;;;5017449;28;20022;-82
2023/02/24 02:00:36;;;;;;;6.72;3.90;;;5.40;99.90;;;;;;5016477;28;20061;-82
2023/02/24 02:03:10;;;;;;;5.18;3.90;;;5.40;99.90;;;;;;5016267;28;20027;-82
2023/02/24 02:05:39;;;;;;;7.10;4.00;;;5.50;99.90;;;;;;5015394;28;20030;-82
2023/02/24 02:08:07;;;;;;;5.97;3.97;;;5.60;99.90;;;;;;5016322;28;20076;-82
2023/02/24 02:10:33;;;;;;;8.82;4.18;;;5.60;99.90;;;;;;5016988;28;22387;-83
2023/02/24 02:12:59;;;;;;;7.60;4.43;;;5.70;99.90;;;;;;5013277;28;20043;-82
2023/02/24 02:15:28;;;;;;;6.63;4.20;;;5.70;99.90;;;;;;5018195;28;20556;-83
2023/02/24 02:28:30;;;;;;;10.25;5.40;;;5.80;99.90;;;;;;5021353;28;20036;-83
2023/02/24 02:31:27;;;;;;;13.40;6.32;;;5.80;99.90;;;;;;5015962;28;20113;-82
2023/02/24 02:34:14;;;;;;;11.55;5.78;;;5.80;99.90;;;;;;5024383;28;20030;-83
2023/02/24 02:36:55;;;;;;;11.60;5.68;;;5.70;99.90;;;;;;5020893;28;20058;-83
2023/02/24 02:39:26;;;;;;;8.70;5.05;;;5.80;99.90;;;;;;5018121;28;20034;-82
2023/02/24 02:42:03;;;;;;;12.85;6.35;;;5.80;99.90;;;;;;5018212;28;20057;-82
2023/02/24 02:44:31;;;;;;;12.10;6.25;;;5.80;99.90;;;;;;5017702;28;20030;-82
2023/02/24 02:47:09;;;;;;;15.07;6.95;;;5.80;99.90;;;;;;5017489;28;20107;-82
2023/02/24 02:49:40;;;;;;;11.45;6.28;;;5.90;99.90;;;;;;5020068;28;20473;-82
2023/02/24 02:52:14;;;;;;;12.88;7.35;;;5.80;99.90;;;;;;5022618;28;20030;-81
2023/02/24 02:54:48;;;;;;;10.95;6.28;;;5.90;99.90;;;;;;5014396;28;20054;-81
2023/02/24 02:57:24;;;;;;;14.15;7.68;;;5.90;99.90;;;;;;5023272;28;20037;-82
2023/02/24 03:00:09;;;;;;;18.02;7.32;;;5.80;99.90;;;;;;5019894;28;20030;-83
2023/02/24 03:02:38;;;;;;;14.85;5.90;;;5.70;99.90;;;;;;5013398;28;20042;-84
2023/02/24 03:05:09;;;;;;;46.65;8.23;;;5.70;99.90;;;;;;5026147;28;20029;-83
2023/02/24 03:07:40;;;;;;;26.58;7.65;;;5.70;99.90;;;;;;5024261;28;20076;-83
2023/02/24 03:10:16;;;;;;;18.80;7.35;;;5.70;99.90;;;;;;5008830;28;20037;-83
2023/02/24 03:12:45;;;;;;;10.57;6.05;;;5.70;99.90;;;;;;5026350;28;20021;-83
2023/02/24 03:15:13;;;;;;;20.63;8.52;;;5.60;99.90;;;;;;5023766;28;20032;-83
2023/02/24 03:17:42;;;;;;;10.55;6.38;;;5.50;99.90;;;;;;5011170;28;20029;-83
2023/02/24 03:20:17;;;;;;;;;;;5.60;99.90;;;;;;5037561;28;20033;-85
2023/02/24 03:22:51;;;;;;;13.05;6.05;;;5.60;99.90;;;;;;5025831;28;19917;-83
2023/02/24 03:25:23;;;;;;;19.58;6.90;;;5.60;99.90;;;;;;5027567;28;20064;-82
2023/02/24 03:28:00;;;;;;;10.05;6.00;;;5.60;99.90;;;;;;5030502;28;20065;-83
2023/02/24 03:30:28;;;;;;;12.63;6.18;;;5.60;99.90;;;;;;5026761;28;20030;-83
2023/02/24 03:33:07;;;;;;;8.35;5.70;;;5.60;99.90;;;;;;5030547;28;20038;-82
2023/02/24 03:35:40;;;;;;;10.10;5.22;;;5.50;99.90;;;;;;5025339;28;20054;-83
2023/02/24 03:38:08;;;;;;;8.40;5.72;;;5.40;99.90;;;;;;5024808;28;20050;-83
2023/02/24 03:40:37;;;;;;;10.05;5.05;;;5.40;99.90;;;;;;5025544;28;20094;-83
2023/02/24 03:43:26;;;;;;;8.02;5.85;;;5.40;99.90;;;;;;5006480;28;20048;-83
2023/02/24 03:45:53;;;;;;;6.63;5.47;;;5.40;99.90;;;;;;5020483;28;20038;-83
2023/02/24 03:48:20;;;;;;;7.78;5.05;;;5.30;99.90;;;;;;5025903;28;20025;-83
2023/02/24 03:50:48;;;;;;;8.10;4.50;;;5.30;99.90;;;;;;5014438;28;20060;-83
2023/02/24 03:53:39;;;;;;;7.35;5.13;;;5.20;99.90;;;;;;5022399;28;20072;-82
2023/02/24 03:56:44;;;;;;;7.70;5.57;;;5.20;99.90;;;;;;5021503;28;20041;-83
2023/02/24 03:59:38;;;;;;;9.15;5.18;;;5.20;99.90;;;;;;5018811;28;20553;-83
2023/02/24 04:02:13;;;;;;;8.82;5.63;;;5.20;99.90;;;;;;5023529;28;20042;-83
2023/02/24 04:05:04;;;;;;;9.50;5.60;;;5.20;99.90;;;;;;5020977;28;20041;-83
2023/02/24 04:07:54;;;;;;;9.73;6.15;;;5.10;99.90;;;;;;5017408;28;20040;-84
2023/02/24 04:10:51;;;;;;;9.30;6.32;;;5.00;99.90;;;;;;5024100;28;20029;-84
2023/02/24 04:13:45;;;;;;;12.80;6.75;;;5.00;99.90;;;;;;5023422;28;20493;-84
2023/02/24 04:16:26;;;;;;;13.38;7.50;;;5.10;99.90;;;;;;5026397;28;20065;-84
2023/02/24 04:18:57;;;;;;;22.80;8.40;;;5.10;99.90;;;;;;5024384;28;20086;-84
2023/02/24 04:21:25;;;;;;;31.48;12.63;;;5.10;99.90;;;;;;5016418;28;20050;-83
2023/02/24 04:23:52;;;;;;;25.40;11.10;;;5.10;99.90;;;;;;5022306;28;20049;-83
2023/02/24 04:26:19;;;;;;;16.88;8.73;;;5.10;99.90;;;;;;5030063;28;20121;-83
2023/02/24 04:28:48;;;;;;;10.73;6.28;;;5.10;99.90;;;;;;5020602;28;20044;-83
2023/02/24 04:31:18;;;;;;;16.90;7.35;;;5.00;99.90;;;;;;5016726;28;20038;-83
2023/02/24 04:33:49;;;;;;;13.27;6.72;;;4.90;99.90;;;;;;5018477;28;20034;-84
2023/02/24 04:36:19;;;;;;;8.63;5.60;;;5.00;99.90;;;;;;5025704;28;20042;-84
2023/02/24 04:38:46;;;;;;;19.92;7.07;;;5.00;99.90;;;;;;5016069;28;20057;-83
2023/02/24 04:41:19;;;;;;;19.00;6.13;;;4.80;99.90;;;;;;5019634;28;20042;-84
2023/02/24 04:43:47;;;;;;;21.90;6.28;;;4.80;99.90;;;;;;5023133;28;20038;-84
2023/02/24 04:46:13;;;;;;;26.50;6.65;;;4.80;99.90;;;;;;5023722;28;20053;-83
2023/02/24 04:48:39;;;;;;;10.18;6.28;;;4.70;99.90;;;;;;5018728;28;20045;-84
2023/02/24 04:51:05;;;;;;;12.18;5.60;;;4.60;99.90;;;;;;5025687;28;20045;-84
2023/02/24 04:53:30;;;;;;;15.63;5.55;;;4.40;99.90;;;;;;5023949;28;20080;-84
2023/02/24 04:55:57;;;;;;;14.95;5.40;;;4.40;99.90;;;;;;5028995;28;20027;-84
2023/02/24 04:58:27;;;;;;;21.10;6.68;;;4.30;99.90;;;;;;5022575;28;20033;-84
2023/02/24 05:00:54;;;;;;;21.17;6.18;;;4.30;99.90;;;;;;5023024;28;20038;-84
2023/02/24 05:03:27;;;;;;;45.78;8.13;;;4.30;99.90;;;;;;5014063;28;20029;-84
2023/02/24 05:06:01;;;;;;;53.40;9.65;;;4.10;99.90;;;;;;5024553;28;20049;-83
2023/02/24 05:08:29;;;;;;;39.10;8.93;;;3.80;99.90;;;;;;5032099;28;20033;-84
2023/02/24 05:10:57;;;;;;;39.72;8.10;;;3.70;99.90;;;;;;5014814;28;20066;-83
2023/02/24 05:13:26;;;;;;;8.87;6.13;;;3.50;99.90;;;;;;5024494;28;20099;-83
2023/02/24 05:15:54;;;;;;;6.60;4.65;;;3.50;99.90;;;;;;5026795;28;20037;-83
2023/02/24 05:18:19;;;;;;;30.08;6.68;;;3.60;99.90;;;;;;5007801;28;20038;-84
2023/02/24 05:23:35;;;;;;;5.55;5.05;;;3.40;99.90;;;;;;5023511;28;20069;-84
2023/02/24 05:26:07;;;;;;;20.52;5.72;;;3.50;99.90;;;;;;5029700;28;20042;-84
2023/02/24 05:28:37;;;;;;;5.50;4.55;;;3.30;99.90;;;;;;5025199;28;20077;-84
2023/02/24 05:31:18;;;;;;;7.45;5.10;;;3.40;99.90;;;;;;5009503;28;20105;-84
2023/02/24 05:33:48;;;;;;;12.35;6.07;;;3.60;99.90;;;;;;5031407;28;20022;-84
2023/02/24 05:36:17;;;;;;;57.60;9.80;;;3.70;99.90;;;;;;5030171;28;20576;-85
2023/02/24 05:38:47;;;;;;;10.07;6.35;;;3.80;99.90;;;;;;5011126;28;20056;-85
2023/02/24 05:41:15;;;;;;;13.85;6.35;;;3.80;99.90;;;;;;5026158;28;20147;-85
2023/02/24 05:43:46;;;;;;;;;;;3.90;99.90;;;;;;5007868;28;20107;-84
2023/02/24 05:46:13;;;;;;;8.57;6.15;;;3.90;99.90;;;;;;5021536;28;19941;-84
2023/02/24 05:48:39;;;;;;;16.55;7.18;;;4.00;99.90;;;;;;5026288;28;20040;-85
2023/02/24 05:51:08;;;;;;;12.82;6.57;;;4.10;99.90;;;;;;5003434;28;20038;-84
2023/02/24 05:53:34;;;;;;;14.07;7.15;;;4.10;99.90;;;;;;5022369;28;20029;-85
2023/02/24 05:56:01;;;;;;;43.22;8.73;;;4.10;99.90;;;;;;5027961;28;20084;-87
2023/02/24 05:58:31;;;;;;;43.42;9.13;;;4.20;99.90;;;;;;5021352;28;20021;-85
2023/02/24 06:00:58;;;;;;;42.60;8.50;;;4.10;99.90;;;;;;5022947;28;20074;-85
2023/02/24 06:03:29;;;;;;;22.50;6.95;;;4.10;99.90;;;;;;5021279;28;20032;-87
2023/02/24 06:06:05;;;;;;;43.30;9.57;;;4.10;99.90;;;;;;5023458;28;20029;-84
2023/02/24 06:08:41;;;;;;;15.15;6.47;;;4.00;99.90;;;;;;5026755;28;20026;-84
2023/02/24 06:11:09;;;;;;;13.68;6.60;;;4.00;99.90;;;;;;5027229;28;20034;-86
2023/02/24 06:13:37;;;;;;;26.05;7.97;;;3.90;99.90;;;;;;5022545;28;20041;-85
2023/02/24 06:16:05;;;;;;;12.48;6.75;;;3.90;99.90;;;;;;5005938;28;20034;-86
2023/02/24 06:18:30;;;;;;;9.77;6.43;;;4.00;99.90;;;;;;5016311;28;20040;-85
2023/02/24 06:20:56;;;;;;;12.10;7.75;;;3.90;99.90;;;;;;5017733;28;20116;-84
2023/02/24 06:23:25;;;;;;;9.40;4.80;;;3.90;99.90;;;;;;5016265;28;20027;-83
2023/02/24 06:25:52;;;;;;;14.70;5.75;;;3.80;99.90;;;;;;5014497;28;20406;-83
2023/02/24 06:28:18;;;;;;;18.92;6.30;;;3.50;99.90;;;;;;5012579;28;20053;-84
2023/02/24 06:30:44;;;;;;;8.55;5.72;;;3.50;99.90;;;;;;5012255;28;20113;-84
2023/02/24 06:33:10;;;;;;;7.82;5.63;;;3.50;99.90;;;;;;5015223;28;21005;-84
2023/02/24 06:35:37;;;;;;;10.18;5.57;;;3.60;99.90;;;;;;5016421;28;20049;-85
2023/02/24 06:38:03;;;;;;;25.50;6.43;;;3.60;99.90;;;;;;5011779;28;20285;-82
2023/02/24 06:40:30;;;;;;;8.85;6.40;;;3.80;99.90;;;;;;5013229;28;20045;-84
2023/02/24 06:42:55;;;;;;;11.13;6.32;;;3.80;99.90;;;;;;5014633;28;20028;-85
2023/02/24 06:45:23;;;;;;;9.90;6.07;;;3.90;99.90;;;;;;5014343;28;20113;-85
2023/02/24 06:47:49;;;;;;;10.88;6.88;;;4.00;99.90;;;;;;5015571;28;20011;-84
2023/02/24 06:50:20;;;;;;;12.32;7.15;;;4.10;99.90;;;;;;5018971;28;20040;-82
2023/02/24 06:52:47;;;;;;;10.75;6.32;;;4.20;99.90;;;;;;5008590;28;20466;-83
2023/02/24 06:55:26;;;;;;;9.23;6.40;;;4.20;99.90;;;;;;5022401;28;20062;-84
2023/02/24 06:57:55;;;;;;;11.80;7.10;;;4.20;99.90;;;;;;5021634;28;20030;-83
2023/02/24 07:00:35;;;;;;;9.27;6.65;;;4.30;99.90;;;;;;5018473;28;20060;-83
2023/02/24 07:03:13;;;;;;;6.70;5.45;;;4.40;99.90;;;;;;5025080;28;20094;-83
2023/02/24 07:05:53;;;;;;;9.48;6.97;;;4.40;99.90;;;;;;5019344;28;20022;-83
2023/02/24 07:08:23;;;;;;;14.00;7.85;;;4.50;99.90;;;;;;5023317;28;20070;-83
2023/02/24 07:10:58;;;;;;;11.02;7.53;;;4.50;99.90;;;;;;5018763;28;20044;-83
2023/02/24 07:13:27;;;;;;;11.13;7.30;;;4.60;99.90;;;;;;5023460;28;20038;-83
2023/02/24 07:15:54;;;;;;;13.23;7.30;;;4.70;99.90;;;;;;5026178;28;20034;-83
2023/02/24 07:18:21;;;;;;;13.50;8.15;;;4.80;99.90;;;;;;5025555;28;20013;-83
2023/02/24 07:21:04;;;;;;;12.95;7.75;;;4.90;99.90;;;;;;5024149;28;20025;-83
2023/02/24 07:23:30;;;;;;;9.52;6.80;;;4.90;99.90;;;;;;4996570;28;20064;-83
2023/02/24 07:25:59;;;;;;;13.00;8.55;;;5.00;99.90;;;;;;5022131;28;20106;-83
2023/02/24 07:28:26;;;;;;;17.33;8.57;;;5.10;99.90;;;;;;5023404;28;20041;-83
2023/02/24 07:30:52;;;;;;;15.00;9.00;;;5.10;99.90;;;;;;5022285;28;20038;-83
2023/02/24 07:33:19;;;;;;;11.70;7.60;;;5.20;99.90;;;;;;5028689;28;20034;-83
2023/02/24 07:35:52;;;;;;;16.23;9.18;;;5.20;99.90;;;;;;4996089;28;20065;-83
2023/02/24 07:38:21;;;;;;;12.98;7.88;;;5.20;99.90;;;;;;5027705;28;20045;-82
2023/02/24 07:40:56;;;;;;;19.08;8.93;;;5.20;99.90;;;;;;5012127;28;20030;-83
2023/02/24 07:43:23;;;;;;;15.90;9.25;;;5.20;99.90;;;;;;5025718;28;20034;-83
2023/02/24 07:45:49;;;;;;;11.23;7.68;;;5.20;99.90;;;;;;4998050;28;20091;-83
2023/02/24 07:48:14;;;;;;;17.80;10.27;;;5.20;99.90;;;;;;5026984;28;20014;-82
2023/02/24 07:50:40;;;;;;;20.98;10.27;;;5.30;99.90;;;;;;5019424;28;20090;-84
2023/02/24 07:53:08;;;;;;;14.98;10.13;;;5.40;99.90;;;;;;5028606;28;20026;-82
2023/02/24 07:55:39;;;;;;;14.93;8.88;;;5.40;99.90;;;;;;5017583;28;20052;-82
2023/02/24 07:58:04;;;;;;;14.95;8.25;;;5.40;99.90;;;;;;5018089;28;20101;-82
2023/02/24 08:00:48;;;;;;;11.23;6.78;;;5.40;99.90;;;;;;5026177;28;20041;-81
2023/02/24 08:03:14;;;;;;;10.88;7.18;;;5.40;99.90;;;;;;5030815;28;20029;-82
2023/02/24 08:06:11;;;;;;;18.13;10.45;;;5.40;99.90;;;;;;5031280;28;20078;-82
2023/02/24 08:08:58;;;;;;;14.32;7.32;;;5.40;99.90;;;;;;5030817;28;20038;-80
2023/02/24 08:11:34;;;;;;;19.13;8.98;;;5.50;99.90;;;;;;5028083;28;20042;-82
2023/02/24 08:14:15;;;;;;;11.93;8.02;;;5.40;99.90;;;;;;5022509;28;20030;-81
2023/02/24 08:16:44;;;;;;;15.43;9.57;;;5.50;99.90;;;;;;5011808;28;20037;-79
2023/02/24 08:19:19;;;;;;;14.75;7.20;;;5.50;99.90;;;;;;5009784;28;20030;-79
2023/02/24 08:21:51;;;;;;;21.02;10.38;;;5.60;99.90;;;;;;5011349;28;20088;-79
2023/02/24 08:24:28;;;;;;;35.47;11.23;;;5.60;99.90;;;;;;5013071;28;20042;-80
2023/02/24 08:27:04;;;;;;;28.50;12.50;;;5.70;99.90;;;;;;5014614;28;20031;-79
2023/02/24 08:30:22;;;;;;;28.33;10.52;;;5.70;99.90;;;;;;5015990;28;20036;-79
2023/02/24 08:32:23;;;;;;;24.95;12.13;;;5.80;99.90;;;;;;5026498;28;20088;-79
2023/02/24 08:34:49;;;;;;;29.00;12.07;;;5.80;99.90;;;;;;5033997;28;20045;-79
2023/02/24 08:37:16;;;;;;;25.92;11.57;;;5.80;99.90;;;;;;5011896;28;20060;-79
2023/02/24 08:39:43;;;;;;;25.48;12.55;;;5.90;99.90;;;;;;5021875;28;20161;-79
2023/02/24 08:42:13;;;;;;;28.30;13.45;;;5.90;99.90;;;;;;5008917;28;20033;-80
2023/02/24 08:44:43;;;;;;;30.23;14.13;;;6.00;99.90;;;;;;5013730;28;20102;-78
2023/02/24 08:47:08;;;;;;;30.90;13.63;;;6.10;99.90;;;;;;5012128;28;20490;-78
2023/02/24 08:49:34;;;;;;;34.33;13.20;;;6.20;99.90;;;;;;5011055;28;20037;-79
2023/02/24 08:52:06;;;;;;;30.95;13.15;;;6.20;99.90;;;;;;5006606;28;20034;-79
2023/02/24 08:54:32;;;;;;;30.48;13.20;;;6.30;99.90;;;;;;5014716;28;20038;-78
2023/02/24 08:57:06;;;;;;;24.02;10.60;;;6.30;99.90;;;;;;5007275;28;20022;-79
2023/02/24 08:59:38;;;;;;;23.40;10.80;;;6.50;99.90;;;;;;5009555;28;20057;-79
2023/02/24 09:02:17;;;;;;;18.42;9.65;;;6.60;99.90;;;;;;5007499;28;20088;-79
2023/02/24 09:04:55;;;;;;;26.63;11.35;;;6.50;99.90;;;;;;5025951;28;20062;-79
2023/02/24 09:07:24;;;;;;;28.58;13.40;;;6.60;99.90;;;;;;5012613;28;20042;-79
2023/02/24 09:09:55;;;;;;;20.27;10.63;;;6.70;99.90;;;;;;5015601;28;20410;-79
2023/02/24 09:12:23;;;;;;;28.85;11.55;;;6.70;99.90;;;;;;5009343;28;20157;-79
2023/02/24 09:15:03;;;;;;;28.00;12.45;;;6.80;99.90;;;;;;5008219;28;20049;-79
2023/02/24 09:17:39;;;;;;;26.00;12.40;;;6.80;99.90;;;;;;5004645;28;20074;-79
2023/02/24 09:22:59;;;;;;;26.73;13.27;;;6.90;99.90;;;;;;5010676;28;20038;-79
2023/02/24 09:25:39;;;;;;;28.17;13.60;;;7.00;99.90;;;;;;5013047;28;20026;-79
2023/02/24 09:28:15;;;;;;;27.02;13.40;;;7.10;99.90;;;;;;5021982;28;20497;-79
2023/02/24 09:30:51;;;;;;;27.75;10.68;;;7.20;99.90;;;;;;5009228;28;20029;-79
2023/02/24 09:33:23;;;;;;;30.70;14.13;;;7.30;99.90;;;;;;5011149;28;20030;-79
2023/02/24 09:36:09;;;;;;;28.42;14.00;;;7.40;99.90;;;;;;5009030;28;20045;-79
2023/02/24 09:44:35;;;;;;;25.70;11.15;;;7.60;99.90;;;;;;5012653;28;20093;-79
2023/02/24 09:50:18;;;;;;;27.83;12.80;;;7.60;99.90;;;;;;5009496;28;20129;-79
2023/02/24 09:52:45;;;;;;;33.78;12.30;;;7.70;99.90;;;;;;5010035;28;20057;-79
2023/02/24 09:55:34;;;;;;;33.72;13.75;;;7.80;99.90;;;;;;5012115;28;20812;-79
2023/02/24 10:01:19;;;;;;;28.70;14.57;;;8.30;99.90;;;;;;5018193;28;20133;-78
2023/02/24 10:04:20;;;;;;;32.38;12.25;;;8.50;99.90;;;;;;5010993;28;20482;-79
2023/02/24 10:07:02;;;;;;;24.67;12.20;;;8.50;99.90;;;;;;5022707;28;20038;-78
2023/02/24 10:09:33;;;;;;;26.33;12.32;;;8.70;99.90;;;;;;5012701;28;20034;-77
2023/02/24 10:12:22;;;;;;;24.05;12.55;;;8.70;99.90;;;;;;5012503;28;20125;-79
2023/02/24 10:15:18;;;;;;;21.67;11.57;;;8.90;99.90;;;;;;5009116;28;20039;-79
2023/02/24 10:17:54;;;;;;;23.20;10.25;;;9.00;99.90;;;;;;5018016;28;20192;-79
2023/02/24 10:20:43;;;;;;;24.05;11.93;;;9.00;99.90;;;;;;5016742;28;20041;-78
2023/02/24 10:23:55;;;;;;;21.38;9.52;;;8.90;99.90;;;;;;5009232;28;20045;-78
2023/02/24 10:26:30;;;;;;;16.08;8.80;;;8.90;99.90;;;;;;5011759;28;20027;-79
2023/02/24 10:29:07;;;;;;;23.38;10.55;;;8.80;99.90;;;;;;5013550;28;20049;-79
2023/02/24 10:32:05;;;;;;;19.23;10.07;;;8.80;99.90;;;;;;5006454;28;20046;-79
2023/02/24 10:34:31;;;;;;;30.05;12.25;;;8.90;99.90;;;;;;5012899;28;20027;-79
2023/02/24 10:37:00;;;;;;;20.88;9.77;;;8.90;99.90;;;;;;5007582;28;20031;-78
2023/02/24 10:39:29;;;;;;;14.00;9.07;;;9.00;99.90;;;;;;5013204;28;20093;-79
2023/02/24 10:42:14;;;;;;;15.65;8.07;;;9.00;99.90;;;;;;5011097;28;20042;-78
2023/02/24 10:44:50;;;;;;;17.73;9.55;;;9.00;99.90;;;;;;5017504;28;20018;-78
2023/02/24 10:47:29;;;;;;;22.83;10.65;;;8.90;99.90;;;;;;5010373;28;20025;-79
2023/02/24 10:49:57;;;;;;;22.80;10.80;;;8.90;99.90;;;;;;5012563;28;20042;-78
2023/02/24 10:58:06;;;;;;;10.98;6.05;;;9.30;99.90;;;;;;5019142;28;20042;-79
2023/02/24 11:04:11;;;;;;;13.70;7.90;;;9.50;99.90;;;;;;5026857;28;20037;-79
2023/02/24 11:09:51;;;;;;;13.98;7.00;;;9.60;99.90;;;;;;5003689;28;20034;-79
2023/02/24 11:18:07;;;;;;;11.15;6.50;;;9.50;99.90;;;;;;5015014;28;20044;-80
2023/02/24 11:20:37;;;;;;;14.07;8.20;;;9.60;99.90;;;;;;5015771;28;20033;-79
2023/02/24 11:23:08;;;;;;;8.95;5.57;;;9.70;99.90;;;;;;5014744;28;20030;-79
2023/02/24 11:25:45;;;;;;;12.13;7.75;;;9.70;99.90;;;;;;5012060;28;20030;-80
2023/02/24 11:28:37;;;;;;;16.08;7.15;;;9.70;99.90;;;;;;5014422;28;20030;-79
2023/02/24 11:31:20;;;;;;;18.33;8.35;;;9.80;99.90;;;;;;5007390;28;20058;-80
2023/02/24 11:34:06;;;;;;;12.65;7.32;;;9.90;99.90;;;;;;5011563;28;20069;-80
2023/02/24 11:36:53;;;;;;;14.00;7.82;;;9.90;99.90;;;;;;5014345;28;21534;-80
2023/02/24 11:39:44;;;;;;;8.40;4.70;;;10.00;99.90;;;;;;5011128;28;20033;-80
2023/02/24 11:42:18;;;;;;;8.05;5.65;;;9.90;99.90;;;;;;5012166;28;20025;-79
2023/02/24 11:44:50;;;;;;;7.25;4.15;;;9.80;99.90;;;;;;5007964;28;20054;-80
2023/02/24 11:47:26;;;;;;;10.05;5.57;;;9.90;99.90;;;;;;5010305;28;20042;-79
2023/02/24 11:50:27;;;;;;;6.45;5.05;;;10.00;99.90;;;;;;5014474;28;20045;-79
2023/02/24 11:52:55;;;;;;;13.70;6.68;;;10.00;99.90;;;;;;5016899;28;20149;-80
2023/02/24 11:55:33;;;;;;;;;;;9.90;99.90;;;;;;5012492;28;20034;-80
2023/02/24 11:58:01;;;;;;;;;;;9.90;99.90;;;;;;5014655;28;19914;-80
2023/02/24 12:00:32;;;;;;;11.23;6.88;;;10.00;99.90;;;;;;5009614;28;19918;-81
2023/02/24 12:03:01;;;;;;;9.30;6.40;;;9.90;99.90;;;;;;5009206;28;20030;-80
2023/02/24 12:05:42;;;;;;;16.48;8.48;;;10.00;99.90;;;;;;5013300;28;20034;-80
2023/02/24 12:08:19;;;;;;;11.63;5.82;;;10.00;99.90;;;;;;5014068;28;20040;-80
2023/02/24 12:11:02;;;;;;;10.27;6.60;;;10.00;99.90;;;;;;5012025;28;20045;-81
2023/02/24 12:13:35;;;;;;;14.43;7.07;;;10.00;99.90;;;;;;5026278;28;20060;-80
2023/02/24 12:16:03;;;;;;;10.88;5.82;;;10.00;99.90;;;;;;5010134;28;20022;-79
2023/02/24 12:18:36;;;;;;;7.20;5.25;;;10.00;99.90;;;;;;5009344;28;20442;-80
2023/02/24 12:21:21;;;;;;;13.52;7.80;;;10.00;99.90;;;;;;5009753;28;20072;-79
2023/02/24 12:23:52;;;;;;;15.40;7.85;;;10.10;99.90;;;;;;5013074;28;20029;-81
2023/02/24 12:26:29;;;;;;;13.43;7.68;;;10.10;99.90;;;;;;5007814;28;20022;-80
2023/02/24 12:29:17;;;;;;;8.63;5.65;;;10.10;99.90;;;;;;5014678;28;20068;-80
2023/02/24 12:32:01;;;;;;;12.90;5.85;;;10.10;99.90;;;;;;5014342;28;20046;-79
2023/02/24 12:34:42;;;;;;;10.50;6.03;;;10.10;99.90;;;;;;5018219;28;20029;-80
2023/02/24 12:37:29;;;;;;;11.27;6.72;;;10.10;99.90;;;;;;5013236;28;20026;-80
2023/02/24 12:40:10;;;;;;;14.57;7.30;;;10.20;99.90;;;;;;5006679;28;20037;-79
2023/02/24 12:43:08;;;;;;;15.88;7.68;;;10.30;99.90;;;;;;5006587;28;20483;-80
2023/02/24 12:46:05;;;;;;;15.60;7.65;;;10.40;99.90;;;;;;5005811;28;20046;-80
2023/02/24 12:48:56;;;;;;;18.13;7.22;;;10.40;99.90;;;;;;4998879;28;20030;-81
2023/02/24 12:51:49;;;;;;;8.93;4.68;;;10.60;99.90;;;;;;5012151;28;20033;-79
2023/02/24 12:54:37;;;;;;;13.77;7.65;;;10.70;99.90;;;;;;5007949;28;20065;-80
2023/02/24 12:57:41;;;;;;;10.43;5.97;;;10.70;99.90;;;;;;5005818;28;20033;-80
2023/02/24 13:00:34;;;;;;;12.85;6.53;;;10.70;99.90;;;;;;5006987;28;20026;-80
2023/02/24 13:03:27;;;;;;;8.57;4.35;;;10.70;99.90;;;;;;5006703;28;20129;-80
2023/02/24 13:05:56;;;;;;;14.55;5.53;;;10.70;99.90;;;;;;5009909;28;20026;-79
2023/02/24 13:08:21;;;;;;;;;;;10.60;99.90;;;;;;5011581;28;20029;-80
2023/02/24 13:11:02;;;;;;;15.75;6.72;;;10.50;99.90;;;;;;5014910;28;19917;-79
2023/02/24 13:13:41;;;;;;;9.20;4.70;;;10.60;99.90;;;;;;5009683;28;20064;-80
2023/02/24 13:16:10;;;;;;;9.05;4.40;;;10.70;99.90;;;;;;5005917;28;20039;-79
2023/02/24 13:18:39;;;;;;;11.32;6.15;;;10.60;99.90;;;;;;5009024;28;20037;-80
2023/02/24 13:21:21;;;;;;;6.43;3.25;;;10.60;99.90;;;;;;5010486;28;20029;-77
2023/02/24 13:23:59;;;;;;;15.25;5.80;;;10.80;99.90;;;;;;5008528;28;20037;-79
2023/02/24 13:26:26;;;;;;;;;;;10.90;99.90;;;;;;5009510;28;20041;-79
2023/02/24 13:29:08;;;;;;;5.53;3.80;;;10.80;99.90;;;;;;5008062;28;19985;-79
2023/02/24 13:32:00;;;;;;;7.68;4.90;;;10.70;99.90;;;;;;5013187;28;20117;-79
2023/02/24 13:34:52;;;;;;;12.65;6.55;;;10.50;99.90;;;;;;5010958;28;20037;-78
2023/02/24 13:37:33;;;;;;;12.40;6.05;;;10.50;99.90;;;;;;5010602;28;20042;-79
2023/02/24 13:39:59;;;;;;;11.90;6.15;;;10.60;99.90;;;;;;5017420;28;20037;-78
2023/02/24 13:42:29;;;;;;;16.90;7.20;;;10.60;99.90;;;;;;5017851;28;20037;-79
2023/02/24 13:45:12;;;;;;;9.60;5.50;;;10.60;99.90;;;;;;5012387;28;20034;-78
2023/02/24 13:47:46;;;;;;;16.30;7.00;;;10.60;99.90;;;;;;5011609;28;20038;-79
2023/02/24 13:50:18;;;;;;;14.57;7.32;;;10.60;99.90;;;;;;5015294;28;20426;-79
2023/02/24 13:53:11;;;;;;;13.93;6.47;;;10.60;99.90;;;;;;5015355;28;20057;-79
2023/02/24 13:55:49;;;;;;;10.10;5.60;;;10.60;99.90;;;;;;5003166;28;20089;-79
2023/02/24 13:58:34;;;;;;;13.02;5.68;;;10.50;99.90;;;;;;5012707;28;20084;-78
2023/02/24 14:01:12;;;;;;;10.45;5.38;;;10.50;99.90;;;;;;5008190;28;20046;-79
2023/02/24 14:03:42;;;;;;;10.35;5.78;;;10.50;99.90;;;;;;5009201;28;20030;-79
2023/02/24 14:06:22;;;;;;;15.95;6.70;;;10.40;99.90;;;;;;5010703;28;20077;-80
2023/02/24 14:08:58;;;;;;;13.38;5.97;;;10.40;99.90;;;;;;5013273;28;20034;-79